< Typhoon 195824 1958 Season Typhoon 195826 >
Typhoon 195825 (KATHY)
General InformationTrack Information on Google Maps || Disaster Info.ResourceGoogle EarthGE AnimationAtom FeedGeoJSON
Detalied Best Track (Time Zone = UTC)
Year Month Day Hour Lat. Long. Pressure (hPa) Wind (kt) Class Image Chart
1958 10 20 06 13.0 128.5 998 0 2 -- Chart
1958 10 20 12 13.0 127.0 998 0 2 -- Chart
1958 10 20 18 12.6 125.6 996 0 2 -- Chart
1958 10 21 00 12.2 124.2 995 0 9 -- Chart
1958 10 21 06 11.7 122.9 995 0 9 -- Chart
1958 10 21 12 12.1 122.5 994 0 9 -- Chart
1958 10 21 18 12.9 121.8 994 0 9 -- Chart
1958 10 22 00 13.4 120.8 994 0 9 -- Chart
1958 10 22 06 13.5 119.2 992 0 9 -- Chart
1958 10 22 12 13.5 118.1 990 0 9 -- Chart
1958 10 22 18 13.5 117.1 990 0 9 -- Chart
1958 10 23 00 13.5 116.2 985 0 9 -- Chart
1958 10 23 06 13.8 115.7 980 0 9 -- Chart
1958 10 23 12 14.2 115.3 980 0 9 -- Chart
1958 10 23 18 14.6 115.0 975 0 9 -- Chart
1958 10 24 00 14.9 114.6 975 0 9 -- Chart
1958 10 24 06 15.2 114.2 975 0 9 -- Chart
1958 10 24 12 15.5 113.9 975 0 9 -- Chart
1958 10 24 18 15.8 113.5 975 0 9 -- Chart
1958 10 25 00 16.1 113.1 980 0 9 -- Chart
1958 10 25 06 16.3 112.8 985 0 9 -- Chart
1958 10 25 12 16.6 112.4 985 0 9 -- Chart
1958 10 25 18 16.7 112.0 990 0 9 -- Chart
1958 10 26 00 16.3 111.9 1000 0 9 -- Chart
1958 10 26 06 16.0 112.0 1000 0 2 -- Chart
1958 10 26 12 15.0 113.0 1006 0 2 -- Chart
Japan Meteorological Agency Best Track Data | Correction Date : 1989-06-01
< Typhoon 195824 1958 Season Typhoon 195826 >

Help